Time;durP1;ratioP1;P1;durP2;ratioP2;P2;SDS_P1;SDS_P2;PMS_P1;PMS_P2;Temp;Humidity;BMP_temperature;BMP_pressure;BME280_temperature;BME280_humidity;BME280_pressure;Samples;Min_cycle;Max_cycle;Signal;HPM_P1;HPM_P2
2023/03/03 00:00:42;;;;;;;21.37;13.13;;;;;;;1.36;100.00;98787.28;5049674;28;20152;-62
2023/03/03 00:03:14;;;;;;;21.93;12.67;;;;;;;1.19;100.00;98762.53;5049561;28;20479;-63
2023/03/03 00:05:39;;;;;;;23.67;13.60;;;;;;;1.34;100.00;98785.56;5048595;28;20067;-62
2023/03/03 00:08:05;;;;;;;22.07;12.83;;;;;;;1.27;100.00;98783.75;5032351;28;20045;-63
2023/03/03 00:10:31;;;;;;;21.70;13.07;;;;;;;1.29;100.00;98789.66;5018450;28;20637;-63
2023/03/03 00:12:57;;;;;;;21.50;12.17;;;;;;;1.20;100.00;98779.38;5047838;28;20054;-63
2023/03/03 00:15:24;;;;;;;21.27;12.23;;;;;;;1.25;100.00;98790.41;5047375;28;20044;-64
2023/03/03 00:17:50;;;;;;;23.00;13.00;;;;;;;1.16;100.00;98778.47;5047866;28;20053;-63
2023/03/03 00:20:47;;;;;;;19.67;13.17;;;;;;;1.14;100.00;98791.88;5047487;28;20141;-64
2023/03/03 00:23:19;;;;;;;18.17;11.63;;;;;;;1.09;100.00;98786.75;5047988;28;20117;-62
2023/03/03 00:25:49;;;;;;;19.07;12.23;;;;;;;0.98;100.00;98769.69;5040838;28;20072;-61
2023/03/03 00:28:30;;;;;;;20.60;11.93;;;;;;;1.16;100.00;98792.75;5048360;28;20048;-61
2023/03/03 00:30:59;;;;;;;21.37;11.27;;;;;;;1.14;100.00;98796.94;5047734;28;20480;-63
2023/03/03 00:33:31;;;;;;;24.40;10.77;;;;;;;1.22;100.00;98792.88;5049044;28;20048;-63
2023/03/03 00:36:15;;;;;;;18.77;11.33;;;;;;;1.16;100.00;98793.59;5049108;28;20036;-63
2023/03/03 00:38:42;;;;;;;18.63;11.00;;;;;;;1.02;100.00;98779.00;5030353;28;20594;-63
2023/03/03 00:41:28;;;;;;;22.97;11.47;;;;;;;1.06;100.00;98793.41;5031885;28;20341;-61
2023/03/03 00:43:53;;;;;;;20.30;10.90;;;;;;;0.86;100.00;98758.47;5029582;28;20063;-63
2023/03/03 00:46:22;;;;;;;20.20;11.33;;;;;;;0.99;100.00;98783.97;5048566;28;20384;-63
2023/03/03 00:48:50;;;;;;;20.10;11.47;;;;;;;0.96;100.00;98782.25;5048339;28;20391;-64
2023/03/03 00:51:22;;;;;;;20.47;10.27;;;;;;;1.01;100.00;98790.78;5047406;28;20078;-62
2023/03/03 00:53:48;;;;;;;17.33;11.30;;;;;;;1.00;100.00;98790.72;5047201;28;20557;-62
2023/03/03 00:56:14;;;;;;;24.57;12.53;;;;;;;0.96;100.00;98784.78;5048036;28;20055;-63
2023/03/03 00:58:40;;;;;;;20.53;11.43;;;;;;;0.88;100.00;98761.06;5031119;28;20056;-62
2023/03/03 01:01:06;;;;;;;22.60;13.20;;;;;;;1.01;100.00;98778.16;5029673;28;20465;-62
2023/03/03 01:03:42;;;;;;;23.40;12.63;;;;;;;0.81;100.00;98744.06;5021951;28;20420;-62
2023/03/03 01:06:09;;;;;;;22.83;13.03;;;;;;;0.90;100.00;98760.25;5044504;28;20044;-63
2023/03/03 01:08:35;;;;;;;21.17;11.53;;;;;;;0.91;100.00;98774.56;5028421;28;20159;-63
2023/03/03 01:11:08;;;;;;;20.33;12.50;;;;;;;0.85;100.00;98759.28;5044910;28;21741;-62
2023/03/03 01:13:35;;;;;;;20.27;11.40;;;;;;;0.78;100.00;98749.03;5024324;28;20095;-62
2023/03/03 01:16:02;;;;;;;23.73;11.37;;;;;;;0.84;100.00;98762.66;5023728;28;20040;-62
2023/03/03 01:18:29;;;;;;;21.30;11.20;;;;;;;0.67;100.00;98733.69;5045389;28;20159;-62
2023/03/03 01:20:54;;;;;;;20.60;11.10;;;;;;;0.84;100.00;98757.63;5039692;28;20040;-61
2023/03/03 01:23:21;;;;;;;20.00;11.90;;;;;;;0.62;100.00;98726.84;5047338;28;20087;-62
2023/03/03 01:25:46;;;;;;;19.63;11.70;;;;;;;0.76;100.00;98746.50;5047122;28;20051;-62
2023/03/03 01:28:12;;;;;;;25.07;12.37;;;;;;;0.67;100.00;98741.25;5047675;28;20041;-62
2023/03/03 01:30:38;;;;;;;23.30;12.10;;;;;;;0.66;100.00;98753.84;5040414;28;20127;-62
2023/03/03 01:33:04;;;;;;;20.20;12.00;;;;;;;0.44;100.00;98712.16;5047259;28;20134;-62
2023/03/03 01:35:29;;;;;;;22.70;12.60;;;;;;;0.65;100.00;98747.94;5039558;28;20086;-63
2023/03/03 01:37:55;;;;;;;25.67;11.53;;;;;;;0.51;100.00;98725.75;5046471;28;20529;-65
2023/03/03 01:40:24;;;;;;;24.73;11.37;;;;;;;0.47;100.00;98734.91;5030024;28;20049;-66
2023/03/03 01:42:51;;;;;;;20.27;10.43;;;;;;;0.47;100.00;98739.13;5051391;28;20066;-62
2023/03/03 01:45:19;;;;;;;18.73;11.30;;;;;;;0.41;100.00;98742.34;5049712;28;20090;-64
2023/03/03 01:47:52;;;;;;;19.67;11.53;;;;;;;0.17;100.00;98703.97;5047311;28;20114;-63
2023/03/03 01:50:26;;;;;;;15.73;10.53;;;;;;;0.25;100.00;98733.59;5034858;28;20464;-62
2023/03/03 01:52:52;;;;;;;20.37;10.17;;;;;;;0.28;100.00;98748.78;5050219;28;20083;-63
2023/03/03 01:55:22;;;;;;;16.70;10.37;;;;;;;0.25;100.00;98746.19;5050560;28;20494;-62
2023/03/03 01:57:55;;;;;;;22.53;10.90;;;;;;;0.24;100.00;98728.50;5049617;28;20088;-61
2023/03/03 02:00:21;;;;;;;20.90;11.20;;;;;;;0.34;100.00;98738.00;5051294;28;20569;-62
2023/03/03 02:02:47;;;;;;;22.97;11.47;;;;;;;0.10;100.00;98690.38;5051473;28;20322;-62
2023/03/03 02:05:15;;;;;;;26.50;12.67;;;;;;;0.39;100.00;98738.94;5052301;28;20140;-62
2023/03/03 02:07:43;;;;;;;21.20;11.90;;;;;;;0.32;100.00;98717.78;5050745;28;20137;-62
2023/03/03 02:10:15;;;;;;;19.90;10.03;;;;;;;0.41;100.00;98734.78;5036479;28;20220;-62
2023/03/03 02:12:56;;;;;;;17.53;9.47;;;;;;;0.41;100.00;98737.31;5050850;28;20071;-62
2023/03/03 02:15:36;;;;;;;20.37;10.60;;;;;;;0.44;100.00;98742.41;5036677;28;20056;-62
2023/03/03 02:18:06;;;;;;;19.80;10.87;;;;;;;0.41;100.00;98732.25;5034160;28;20044;-62
2023/03/03 02:20:57;;;;;;;19.70;11.67;;;;;;;0.52;100.00;98728.31;5051380;28;20045;-61
2023/03/03 02:23:28;;;;;;;21.00;12.00;;;;;;;0.61;100.00;98737.75;5051901;28;20041;-61
2023/03/03 02:25:57;;;;;;;21.90;12.77;;;;;;;0.64;100.00;98736.13;5033760;28;20531;-65
2023/03/03 02:28:28;;;;;;;19.73;10.87;;;;;;;0.52;100.00;98705.59;5043265;28;20032;-61
2023/03/03 02:30:56;;;;;;;18.23;11.30;;;;;;;0.61;100.00;98738.59;5043052;28;20098;-62
2023/03/03 02:33:23;;;;;;;22.90;11.23;;;;;;;0.52;100.00;98735.00;5052026;28;20041;-61
2023/03/03 02:35:49;;;;;;;20.37;11.30;;;;;;;0.44;100.00;98737.38;5037589;28;20052;-61
2023/03/03 02:38:24;;;;;;;20.73;11.60;;;;;;;0.23;100.00;98706.63;5050977;28;20040;-62
2023/03/03 02:41:08;;;;;;;18.20;10.47;;;;;;;0.44;100.00;98737.38;5051085;28;20037;-64
2023/03/03 02:44:12;;;;;;;22.20;11.60;;;;;;;0.43;100.00;98741.56;5032643;28;20047;-61
2023/03/03 02:46:41;;;;;;;18.07;11.20;;;;;;;0.43;100.00;98734.00;5032455;28;20090;-60
2023/03/03 02:49:08;;;;;;;19.47;11.27;;;;;;;0.42;100.00;98728.94;5051401;28;20443;-61
2023/03/03 02:51:35;;;;;;;19.83;11.73;;;;;;;0.41;100.00;98734.78;5051559;28;20076;-63
2023/03/03 02:54:01;;;;;;;16.03;10.60;;;;;;;0.44;100.00;98733.19;5042580;28;20037;-61
2023/03/03 02:56:29;;;;;;;18.73;10.17;;;;;;;0.47;100.00;98726.50;5016866;28;20135;-63
2023/03/03 02:58:55;;;;;;;18.00;10.23;;;;;;;0.44;100.00;98719.72;5050759;28;20072;-63
2023/03/03 03:01:21;;;;;;;18.60;10.93;;;;;;;0.48;100.00;98721.47;5042095;28;20173;-63
2023/03/03 03:03:48;;;;;;;19.13;11.60;;;;;;;0.49;100.00;98714.78;5051076;28;20563;-63
2023/03/03 03:06:20;;;;;;;19.33;10.50;;;;;;;0.52;100.00;98720.72;5041028;28;20131;-61
2023/03/03 03:08:46;;;;;;;18.33;9.90;;;;;;;0.57;100.00;98719.16;5032941;28;20049;-62
2023/03/03 03:11:12;;;;;;;18.33;12.03;;;;;;;0.70;100.00;98717.75;5041680;28;20094;-61
2023/03/03 03:13:39;;;;;;;16.83;11.13;;;;;;;0.72;100.00;98719.47;5019048;28;20061;-62
2023/03/03 03:16:05;;;;;;;18.50;10.67;;;;;;;0.71;100.00;98707.72;5019373;28;20041;-63
2023/03/03 03:18:31;;;;;;;23.33;12.03;;;;;;;0.68;100.00;98710.16;5049888;28;20115;-62
2023/03/03 03:21:05;;;;;;;18.37;10.30;;;;;;;0.59;100.00;98683.91;5035301;28;20040;-62
2023/03/03 03:23:31;;;;;;;19.23;10.60;;;;;;;0.58;100.00;98688.09;5029244;28;20055;-62
2023/03/03 03:25:57;;;;;;;18.70;11.30;;;;;;;0.69;100.00;98708.47;5025315;28;20450;-62
2023/03/03 03:28:26;;;;;;;18.27;10.77;;;;;;;0.53;100.00;98694.69;5042818;28;20051;-63
2023/03/03 03:30:53;;;;;;;19.63;10.73;;;;;;;0.55;100.00;98700.66;5018751;28;20515;-62
2023/03/03 03:33:20;;;;;;;21.07;11.97;;;;;;;0.66;100.00;98719.38;5015757;28;20522;-63
2023/03/03 03:35:47;;;;;;;22.60;10.67;;;;;;;0.66;100.00;98716.84;5035038;28;20514;-63
2023/03/03 03:38:15;;;;;;;18.27;10.83;;;;;;;0.64;100.00;98726.03;5035058;28;20076;-62
2023/03/03 03:40:42;;;;;;;17.97;10.47;;;;;;;0.67;100.00;98722.75;5026672;28;20037;-63
2023/03/03 03:43:08;;;;;;;24.00;11.70;;;;;;;0.66;100.00;98726.94;5039326;28;20036;-62
2023/03/03 03:45:33;;;;;;;23.53;11.23;;;;;;;0.66;100.00;98723.56;5050242;28;20032;-63
2023/03/03 03:48:00;;;;;;;21.40;10.97;;;;;;;0.51;100.00;98703.88;5030801;28;20036;-63
2023/03/03 03:50:26;;;;;;;19.27;10.70;;;;;;;0.65;100.00;98726.91;5028476;28;20515;-60
2023/03/03 03:52:52;;;;;;;18.37;10.43;;;;;;;0.69;100.00;98721.09;5034153;28;20479;-61
2023/03/03 03:55:18;;;;;;;22.00;12.63;;;;;;;0.43;100.00;98677.66;5015763;28;20090;-60
2023/03/03 03:57:44;;;;;;;17.93;11.27;;;;;;;0.69;100.00;98718.56;5018700;28;20053;-59
2023/03/03 04:00:10;;;;;;;18.83;10.17;;;;;;;0.65;100.00;98714.28;5038509;28;20068;-61
2023/03/03 04:02:48;;;;;;;21.93;11.33;;;;;;;0.61;100.00;98717.56;5047484;28;20055;-61
2023/03/03 04:05:17;;;;;;;22.63;11.50;;;;;;;0.55;100.00;98702.31;5031563;28;20147;-61
2023/03/03 04:07:43;;;;;;;16.70;10.27;;;;;;;0.98;100.00;98677.13;5040627;28;20041;-59
2023/03/03 04:10:10;;;;;;;17.07;10.63;;;;;;;0.91;100.00;98673.63;5048401;28;20041;-61
2023/03/03 04:12:38;;;;;;;22.73;11.17;;;;;;;1.02;100.00;98713.38;5033489;28;20044;-61
2023/03/03 04:15:10;;;;;;;22.63;11.10;;;;;;;0.84;100.00;98718.91;5034163;28;20503;-61
2023/03/03 04:17:37;;;;;;;24.87;11.47;;;;;;;0.74;100.00;98714.47;5048064;28;20518;-60
2023/03/03 04:20:04;;;;;;;18.73;10.53;;;;;;;0.72;100.00;98718.66;5040095;28;20645;-61
2023/03/03 04:22:34;;;;;;;18.70;11.13;;;;;;;0.60;100.00;98711.66;5032250;28;20033;-62
2023/03/03 04:25:03;;;;;;;19.80;10.57;;;;;;;0.58;100.00;98720.88;5047691;28;20051;-59
2023/03/03 04:27:35;;;;;;;17.00;10.07;;;;;;;0.47;100.00;98713.91;5041921;28;20036;-61
2023/03/03 04:30:03;;;;;;;18.37;10.70;;;;;;;0.42;100.00;98716.31;5032472;28;20257;-60
2023/03/03 04:32:32;;;;;;;21.40;11.43;;;;;;;0.36;100.00;98721.22;5031955;28;20076;-62
2023/03/03 04:34:59;;;;;;;18.23;11.83;;;;;;;0.25;100.00;98715.09;5035018;28;20045;-62
2023/03/03 04:37:25;;;;;;;19.67;10.90;;;;;;;0.26;100.00;98714.25;5033155;28;20076;-61
2023/03/03 04:39:51;;;;;;;18.33;10.47;;;;;;;0.30;100.00;98718.53;5034758;28;20068;-60
2023/03/03 04:42:17;;;;;;;22.70;10.57;;;;;;;0.06;100.00;98690.25;5034739;28;20120;-62
2023/03/03 04:44:44;;;;;;;17.77;10.37;;;;;;;0.10;100.00;98715.56;5050497;28;20103;-61
2023/03/03 04:47:09;;;;;;;21.27;11.10;;;;;;;-0.13;100.00;98697.38;5042070;28;20045;-65
2023/03/03 04:49:36;;;;;;;24.50;12.27;;;;;;;0.02;100.00;98727.16;5049801;28;20411;-61
2023/03/03 04:52:02;;;;;;;24.60;12.50;;;;;;;-0.10;100.00;98734.41;5050171;28;20052;-61
2023/03/03 04:54:28;;;;;;;22.63;12.33;;;;;;;-0.16;100.00;98739.28;5017925;28;20044;-61
2023/03/03 04:56:54;;;;;;;21.53;12.47;;;;;;;-0.20;100.00;98738.38;5035195;28;20463;-60
2023/03/03 04:59:20;;;;;;;21.57;12.30;;;;;;;-0.31;100.00;98738.91;5045837;28;20065;-64
2023/03/03 05:01:46;;;;;;;17.40;11.73;;;;;;;-0.38;100.00;98747.13;5045445;28;20456;-60
2023/03/03 05:04:13;;;;;;;20.87;11.70;;;;;;;-0.47;100.00;98743.53;5038460;28;20040;-61
2023/03/03 05:06:39;;;;;;;21.97;13.20;;;;;;;-0.50;100.00;98740.09;5029254;28;20049;-60
2023/03/03 05:09:05;;;;;;;22.90;13.30;;;;;;;-0.55;100.00;98744.16;5047386;28;20045;-62
2023/03/03 05:11:31;;;;;;;21.00;12.00;;;;;;;-0.56;100.00;98740.81;5047587;28;20662;-60
2023/03/03 05:13:57;;;;;;;20.23;12.17;;;;;;;-0.59;100.00;98728.13;5049685;28;20037;-61
2023/03/03 05:16:23;;;;;;;21.60;12.37;;;;;;;-0.54;100.00;98744.19;5047423;28;20537;-62
2023/03/03 05:18:48;;;;;;;20.43;11.77;;;;;;;-0.53;100.00;98743.41;5031882;28;20094;-62
2023/03/03 05:21:14;;;;;;;19.63;12.17;;;;;;;-0.48;100.00;98744.38;5029010;28;20048;-61
2023/03/03 05:23:40;;;;;;;19.47;12.77;;;;;;;-0.61;100.00;98716.31;5048247;28;20119;-61
2023/03/03 05:26:06;;;;;;;27.57;11.53;;;;;;;-0.64;100.00;98712.06;5047344;28;20048;-60
2023/03/03 05:28:32;;;;;;;22.03;12.07;;;;;;;-0.35;100.00;98730.44;5048628;28;20175;-60
2023/03/03 05:30:57;;;;;;;24.67;14.23;;;;;;;-0.39;100.00;98732.84;5049097;28;20672;-60
2023/03/03 05:33:23;;;;;;;21.47;12.93;;;;;;;-0.42;100.00;98732.75;5047215;28;20076;-62
2023/03/03 05:35:56;;;;;;;19.97;10.87;;;;;;;-0.60;100.00;98713.84;5046786;28;20056;-62
2023/03/03 05:38:23;;;;;;;19.97;10.77;;;;;;;-0.56;100.00;98730.75;5032952;28;20060;-62
2023/03/03 05:40:49;;;;;;;22.13;13.63;;;;;;;-0.71;100.00;98720.25;5029605;28;20032;-62
2023/03/03 05:43:15;;;;;;;22.43;12.13;;;;;;;-0.63;100.00;98748.13;5048229;28;20102;-59
2023/03/03 05:45:40;;;;;;;19.53;10.97;;;;;;;-0.76;100.00;98733.50;5047410;28;20107;-64
2023/03/03 05:48:06;;;;;;;25.87;12.13;;;;;;;-0.75;100.00;98738.59;5046552;28;20201;-60
2023/03/03 05:50:32;;;;;;;18.50;11.30;;;;;;;-0.59;100.00;98757.47;5048315;28;20423;-60
2023/03/03 05:52:58;;;;;;;27.30;12.17;;;;;;;-0.53;100.00;98760.16;5047064;28;20075;-61
2023/03/03 05:55:24;;;;;;;21.80;13.57;;;;;;;-0.47;100.00;98752.78;5040227;28;20045;-61
2023/03/03 05:57:49;;;;;;;24.23;12.63;;;;;;;-0.44;100.00;98757.91;5046648;28;20035;-61
2023/03/03 06:00:16;;;;;;;24.50;12.40;;;;;;;-0.41;100.00;98759.63;5044568;28;20426;-61
2023/03/03 06:02:42;;;;;;;23.03;12.63;;;;;;;-0.37;100.00;98757.22;5045619;28;20052;-62
2023/03/03 06:05:09;;;;;;;20.67;11.77;;;;;;;-0.43;100.00;98741.13;5028781;28;20571;-61
2023/03/03 06:07:35;;;;;;;21.13;11.67;;;;;;;-0.34;100.00;98767.38;5044097;28;20056;-61
2023/03/03 06:10:01;;;;;;;22.17;12.50;;;;;;;-0.32;100.00;98763.25;5047825;28;20143;-60
2023/03/03 06:12:29;;;;;;;27.77;14.33;;;;;;;-0.14;100.00;98788.06;5030872;28;20471;-71
2023/03/03 06:14:54;;;;;;;19.50;11.17;;;;;;;0.00;100.00;98799.34;5044792;28;20055;-61
2023/03/03 06:17:20;;;;;;;21.77;13.27;;;;;;;0.07;100.00;98790.25;5048421;28;20036;-60
2023/03/03 06:19:47;;;;;;;24.03;12.73;;;;;;;0.15;100.00;98798.84;5047913;28;20088;-61
2023/03/03 06:22:13;;;;;;;19.90;12.53;;;;;;;0.27;100.00;98799.16;5050505;28;20299;-61
2023/03/03 06:24:38;;;;;;;25.33;13.63;;;;;;;0.42;100.00;98795.31;5050893;28;20610;-62
2023/03/03 06:27:04;;;;;;;26.17;11.83;;;;;;;0.54;100.00;98788.88;5050379;28;20483;-60
2023/03/03 06:29:30;;;;;;;19.50;11.97;;;;;;;0.54;100.00;98782.16;5053496;28;20067;-61
2023/03/03 06:31:57;;;;;;;23.40;12.37;;;;;;;0.74;100.00;98797.72;5053937;28;20405;-62
2023/03/03 06:34:22;;;;;;;22.87;12.70;;;;;;;0.87;100.00;98808.13;5053692;28;20037;-61
2023/03/03 06:36:48;;;;;;;24.80;12.43;;;;;;;1.04;100.00;98800.06;5056357;28;20407;-62
2023/03/03 06:39:14;;;;;;;23.73;12.07;;;;;;;1.19;100.00;98808.00;5058337;28;20384;-62
2023/03/03 06:41:41;;;;;;;22.00;13.47;;;;;;;1.34;100.00;98811.66;5058403;28;20044;-65
2023/03/03 06:44:06;;;;;;;21.90;12.87;;;;;;;1.27;100.00;98771.13;5059616;28;20139;-59
2023/03/03 06:46:32;;;;;;;24.77;13.80;;;;;;;1.42;100.00;98791.59;5060112;28;20467;-64
2023/03/03 06:48:58;;;;;;;21.40;12.70;;;;;;;1.52;100.00;98795.16;5058078;28;20041;-62
2023/03/03 06:51:29;;;;;;;26.00;14.57;;;;;;;1.84;100.00;98816.81;5052946;28;20039;-62
2023/03/03 06:53:57;;;;;;;25.00;13.43;;;;;;;2.03;100.00;98821.41;5045608;28;20037;-64
2023/03/03 06:56:24;;;;;;;20.53;12.53;;;;;;;2.13;100.00;98819.88;5051715;28;20047;-59
2023/03/03 06:58:53;;;;;;;22.97;12.57;;;;;;;2.33;100.00;98817.69;5048171;28;20049;-62
2023/03/03 07:01:18;;;;;;;21.43;12.70;;;;;;;2.44;100.00;98808.59;5039727;28;20069;-62
2023/03/03 07:03:45;;;;;;;24.73;12.53;;;;;;;2.50;100.00;98813.75;5032704;28;20055;-63
2023/03/03 07:06:29;;;;;;;19.73;11.50;;;;;;;2.61;100.00;98819.81;5051231;28;20496;-62
2023/03/03 07:08:56;;;;;;;20.53;11.40;;;;;;;2.71;100.00;98822.53;5050508;28;20443;-59
2023/03/03 07:11:22;;;;;;;19.43;11.43;;;;;;;2.94;100.00;98816.94;5046718;28;20102;-61
2023/03/03 07:13:50;;;;;;;21.37;11.90;;;;;;;3.06;100.00;98819.63;5048962;28;20033;-62
2023/03/03 07:16:17;;;;;;;23.97;12.13;;;;;;;3.10;100.00;98788.44;5048379;28;20075;-61
2023/03/03 07:18:51;;;;;;;20.50;11.73;;;;;;;3.43;100.00;98815.91;5048185;28;20056;-60
2023/03/03 07:21:22;;;;;;;26.70;14.17;;;;;;;3.38;100.00;98799.78;5048845;28;20045;-60
2023/03/03 07:23:50;;;;;;;24.40;14.00;;;;;;;3.37;100.00;98798.09;5049885;28;20120;-63
2023/03/03 07:26:24;;;;;;;22.57;13.53;;;;;;;3.71;100.00;98823.00;5050919;28;20032;-61
2023/03/03 07:28:55;;;;;;;22.37;13.50;;;;;;;3.87;100.00;98821.47;5049422;28;20377;-62
2023/03/03 07:31:44;;;;;;;25.20;14.57;;;;;;;4.02;100.00;98819.97;5052311;28;20037;-62
2023/03/03 07:34:22;;;;;;;22.80;12.40;;;;;;;4.06;100.00;98792.94;5047786;28;20048;-61
2023/03/03 07:36:53;;;;;;;23.93;13.63;;;;;;;4.40;100.00;98822.84;5047404;28;20453;-61
2023/03/03 07:39:35;;;;;;;24.80;13.67;;;;;;;4.58;100.00;98828.03;5046070;28;20263;-61
2023/03/03 07:42:21;;;;;;;24.63;14.57;;;;;;;4.80;100.00;98820.59;5029532;28;20151;-58
2023/03/03 07:44:57;;;;;;;26.83;16.03;;;;;;;4.87;100.00;98804.56;5032264;28;20037;-58
2023/03/03 07:47:30;;;;;;;25.60;15.87;;;;;;;5.14;100.00;98819.97;5048728;28;20053;-58
2023/03/03 07:50:18;;;;;;;27.40;15.93;;;;;;;5.34;100.00;98822.63;5050962;28;20041;-58
2023/03/03 07:52:58;;;;;;;25.70;15.67;;;;;;;5.46;100.00;98812.50;5045037;28;20072;-59
2023/03/03 07:55:36;;;;;;;26.60;15.80;;;;;;;5.58;100.00;98802.38;5047602;28;20036;-59
2023/03/03 07:58:16;;;;;;;27.20;15.83;;;;;;;5.79;100.00;98815.16;5048110;28;20037;-58
2023/03/03 08:00:41;;;;;;;22.53;14.50;;;;;;;5.66;100.00;98797.31;5047641;28;20048;-57
2023/03/03 08:03:19;;;;;;;21.77;14.30;;;;;;;5.87;100.00;98813.50;5048540;28;20357;-59
2023/03/03 08:05:49;;;;;;;25.60;14.20;;;;;;;5.87;100.00;98807.56;5050312;28;20044;-58
2023/03/03 08:08:29;;;;;;;24.60;15.83;;;;;;;6.02;100.00;98805.09;5050413;28;20041;-57
2023/03/03 08:11:00;;;;;;;24.00;15.97;;;;;;;6.24;100.00;98813.56;5048531;28;20052;-59
2023/03/03 08:13:46;;;;;;;27.20;16.07;;;;;;;6.29;100.00;98830.56;5046519;28;20110;-58
2023/03/03 08:16:12;;;;;;;27.37;15.33;;;;;;;6.40;100.00;98820.41;5048500;28;20084;-56
2023/03/03 08:18:45;;;;;;;24.40;15.27;;;;;;;6.51;100.00;98830.56;5049412;28;20583;-56
2023/03/03 08:21:19;;;;;;;28.10;15.03;;;;;;;6.55;100.00;98833.13;5050017;28;20507;-56
2023/03/03 08:23:45;;;;;;;23.67;15.27;;;;;;;6.34;100.00;98795.78;5046575;28;20105;-58
2023/03/03 08:26:13;;;;;;;25.93;16.00;;;;;;;6.62;100.00;98839.91;5045852;28;20567;-58
2023/03/03 08:28:39;;;;;;;25.13;15.47;;;;;;;6.62;100.00;98844.19;5047669;28;20044;-57
2023/03/03 08:31:05;;;;;;;21.47;13.97;;;;;;;6.53;100.00;98824.66;5050113;28;20045;-58
2023/03/03 08:33:31;;;;;;;18.77;15.17;;;;;;;6.69;100.00;98848.41;5047288;28;20552;-59
2023/03/03 08:35:56;;;;;;;26.10;15.77;;;;;;;6.77;100.00;98844.16;5049133;28;20048;-59
2023/03/03 08:38:22;;;;;;;25.27;16.17;;;;;;;6.83;100.00;98844.19;5045613;28;20052;-58
2023/03/03 08:40:48;;;;;;;24.43;15.40;;;;;;;6.90;100.00;98825.47;5038509;28;20518;-58
2023/03/03 08:43:20;;;;;;;28.40;16.13;;;;;;;6.93;100.00;98835.66;5045510;28;20040;-55
2023/03/03 08:45:51;;;;;;;30.00;17.43;;;;;;;7.12;100.00;98837.34;5047511;28;20132;-59
2023/03/03 08:48:17;;;;;;;25.70;15.87;;;;;;;7.38;100.00;98833.88;5050686;28;20453;-56
2023/03/03 08:50:43;;;;;;;25.43;18.63;;;;;;;7.38;100.00;98829.63;5045021;28;20045;-57
2023/03/03 08:53:10;;;;;;;26.70;17.73;;;;;;;7.43;100.00;98827.03;5046500;28;20069;-55
2023/03/03 08:55:35;;;;;;;33.00;19.47;;;;;;;7.26;99.40;98799.03;5046889;28;20510;-59
2023/03/03 08:58:01;;;;;;;33.27;20.77;;;;;;;7.57;98.26;98822.72;5048090;28;20044;-55
2023/03/03 09:00:27;;;;;;;33.90;21.83;;;;;;;7.62;97.38;98804.00;5047675;28;20610;-57
2023/03/03 09:02:53;;;;;;;31.37;20.03;;;;;;;8.03;97.23;98811.44;5044521;28;20492;-57
2023/03/03 09:05:20;;;;;;;38.83;23.00;;;;;;;8.17;95.60;98827.53;5045007;28;20598;-56
2023/03/03 09:07:47;;;;;;;36.93;23.43;;;;;;;8.17;93.21;98806.25;5045427;28;20037;-56
2023/03/03 09:10:18;;;;;;;40.50;24.87;;;;;;;8.27;93.58;98825.78;5044926;28;20044;-59
2023/03/03 09:12:47;;;;;;;35.93;23.90;;;;;;;8.41;92.98;98825.69;5045921;28;20126;-56
2023/03/03 09:15:13;;;;;;;37.33;24.03;;;;;;;8.59;90.87;98820.44;5044345;28;20048;-56
2023/03/03 09:17:39;;;;;;;39.97;24.30;;;;;;;8.36;89.49;98819.78;5046204;28;20440;-56
2023/03/03 09:20:26;;;;;;;39.10;25.03;;;;;;;8.48;89.15;98824.81;5043870;28;20036;-57
2023/03/03 09:22:52;;;;;;;41.90;24.20;;;;;;;8.62;87.21;98828.06;5026489;28;20249;-56
2023/03/03 09:25:38;;;;;;;36.63;23.53;;;;;;;8.70;85.99;98823.75;5046686;28;20483;-56
2023/03/03 09:28:28;;;;;;;36.25;23.85;;;;;;;8.84;84.19;98827.03;5030290;28;20148;-58
2023/03/03 09:30:58;;;;;;;37.38;23.60;;;;;;;8.45;87.33;98806.91;5036419;28;20044;-54
2023/03/03 09:33:45;;;;;;;35.27;22.90;;;;;;;8.88;85.22;98830.41;5044180;28;20071;-55
2023/03/03 09:36:23;;;;;;;32.22;19.95;;;;;;;8.95;84.85;98830.38;5047443;28;20061;-58
2023/03/03 09:38:49;;;;;;;38.72;24.90;;;;;;;9.00;81.18;98828.59;5048056;28;20052;-56
2023/03/03 09:41:34;;;;;;;39.40;25.08;;;;;;;9.55;81.71;98828.84;5043086;28;20899;-54
2023/03/03 09:44:24;;;;;;;42.78;26.85;;;;;;;9.45;78.76;98790.59;5026503;28;20437;-55
2023/03/03 09:47:32;;;;;;;45.00;25.33;;;;;;;9.80;78.03;98826.00;5045515;28;20346;-57
2023/03/03 09:50:00;;;;;;;37.75;23.15;;;;;;;9.90;76.68;98825.00;5045204;28;20041;-56
2023/03/03 09:52:47;;;;;;;34.10;21.60;;;;;;;9.90;76.89;98833.53;5047805;28;20226;-58
2023/03/03 09:55:37;;;;;;;36.72;22.13;;;;;;;9.89;76.68;98839.53;5048047;28;20041;-58
2023/03/03 09:58:06;;;;;;;38.40;23.42;;;;;;;9.82;74.06;98834.50;5045607;28;20609;-60
2023/03/03 10:00:50;;;;;;;39.13;22.30;;;;;;;9.95;69.43;98836.03;5044207;28;20060;-56
2023/03/03 10:03:47;;;;;;;30.48;21.35;;;;;;;10.07;67.96;98839.28;5047864;28;20127;-57
2023/03/03 10:06:32;;;;;;;37.33;24.42;;;;;;;10.12;66.08;98843.50;5048283;28;20122;-58
2023/03/03 10:09:00;;;;;;;38.03;23.33;;;;;;;10.12;65.39;98839.22;5047732;28;20047;-55
2023/03/03 10:11:26;;;;;;;35.85;23.52;;;;;;;10.05;64.43;98842.75;5049098;28;20128;-58
2023/03/03 10:14:10;;;;;;;34.30;22.48;;;;;;;10.10;63.01;98840.94;5050147;28;20051;-57
2023/03/03 10:17:04;;;;;;;31.80;21.40;;;;;;;10.18;61.35;98838.34;5052812;28;20059;-55
2023/03/03 10:19:37;;;;;;;32.10;21.77;;;;;;;10.20;59.30;98836.56;5049917;28;20037;-54
2023/03/03 10:22:19;;;;;;;34.47;22.33;;;;;;;10.42;59.53;98837.97;5049586;28;20083;-57
2023/03/03 10:24:53;;;;;;;38.00;21.52;;;;;;;10.51;58.55;98840.41;5046437;28;20045;-58
2023/03/03 10:27:25;;;;;;;27.40;19.80;;;;;;;10.41;56.03;98843.94;5049024;28;20106;-57
2023/03/03 10:30:16;;;;;;;33.00;19.65;;;;;;;10.42;55.43;98843.09;5046382;28;20090;-58
2023/03/03 10:32:48;;;;;;;32.47;19.63;;;;;;;10.11;57.48;98829.84;5050076;28;20070;-57
2023/03/03 10:35:44;;;;;;;27.35;19.00;;;;;;;10.15;55.41;98846.88;5050333;28;20041;-56
2023/03/03 10:38:37;;;;;;;27.15;18.63;;;;;;;10.29;54.47;98837.31;5052635;28;20522;-57
2023/03/03 10:41:27;;;;;;;29.35;18.30;;;;;;;9.88;53.94;98842.97;5040728;28;20057;-61
2023/03/03 10:44:14;;;;;;;33.25;17.77;;;;;;;9.92;54.61;98847.19;5052223;28;20040;-61
2023/03/03 10:46:47;;;;;;;27.73;17.85;;;;;;;9.82;55.83;98844.75;5051416;28;20095;-59
2023/03/03 10:49:25;;;;;;;29.10;18.50;;;;;;;9.92;56.53;98836.94;5036221;28;20393;-61
2023/03/03 10:52:06;;;;;;;28.77;18.05;;;;;;;10.01;56.19;98831.66;5049770;28;20463;-60
2023/03/03 10:55:11;;;;;;;25.90;16.98;;;;;;;10.18;55.85;98810.16;5049754;28;20048;-61
2023/03/03 10:57:47;;;;;;;29.05;19.63;;;;;;;10.12;56.37;98815.31;5049866;28;20442;-61
2023/03/03 11:00:23;;;;;;;27.08;17.40;;;;;;;10.21;55.80;98810.09;5047460;28;20069;-61
2023/03/03 11:03:26;;;;;;;25.20;17.35;;;;;;;10.09;56.46;98806.81;5049874;28;20033;-61
2023/03/03 11:06:43;;;;;;;23.08;16.17;;;;;;;10.15;52.37;98803.34;5050834;28;20328;-61
2023/03/03 11:09:23;;;;;;;22.13;13.73;;;;;;;10.30;50.77;98803.13;5024623;28;20052;-61
2023/03/03 11:11:54;;;;;;;22.88;14.60;;;;;;;10.38;50.21;98800.44;5049583;28;20607;-60
2023/03/03 11:14:30;;;;;;;25.05;15.50;;;;;;;10.35;51.86;98793.66;5048984;28;20173;-60
2023/03/03 11:17:09;;;;;;;25.85;16.95;;;;;;;10.30;52.21;98785.19;5050701;28;20041;-62
2023/03/03 11:19:47;;;;;;;24.13;15.95;;;;;;;10.23;52.68;98765.63;5050069;28;20749;-60
2023/03/03 11:22:42;;;;;;;21.88;15.07;;;;;;;10.38;51.04;98772.25;5049394;28;20102;-60
2023/03/03 11:25:29;;;;;;;23.58;15.65;;;;;;;10.39;52.53;98756.00;5048606;28;20563;-59
2023/03/03 11:28:28;;;;;;;24.02;16.50;;;;;;;10.15;54.39;98772.59;5047683;28;20379;-64
2023/03/03 11:31:52;;;;;;;24.95;15.90;;;;;;;10.19;56.18;98781.94;5046679;28;20159;-60
2023/03/03 11:35:03;;;;;;;24.27;15.93;;;;;;;10.40;54.75;98760.25;4978601;28;20065;-60
2023/03/03 11:37:55;;;;;;;24.02;16.13;;;;;;;10.46;53.04;98742.22;4977669;28;20049;-61